Rochester, MN

7:18 PM CDT on April 21, 2015 (GMT -0500)
Austin Municipal | | Change Station
CLOSE
Current Station
Airport
Location: Austin,
Elevation: 1230 ft
Nearby Weather Stations
Active Advisory: Special Statement Active Notice: Public Information Statement

Elev 1230 ft 43.67 °N, 92.93 °W | Updated 22 minutes ago

Overcast
Overcast
37 °F
Feels Like 26 °F
N
24
Wind Variable Wind from WNW
Gusts 34 mph

Today
High -- | Low -- °F
--% Chance of Precip.
Yesterday
High -- | Low -- °F
Precip. -- in
6:17 AM 8:01 PM
Waxing Crescent, 13% visible
Pressure 29.72 in
Visibility 10.0 miles
Clouds Overcast 4100 ft
Windchill 26 °F
Dew Point 25 °F
Humidity 60%
Rainfall 0.00 in
Snow Depth Not available.
UV 0 out of 12
Pollen 10.00 out of 12
Air Quality Not available.
Flu Activity Local Activity
METAR KAUM 212356Z AUTO 30021G30KT 10SM OVC041 03/M04 A2972 RMK AO2

More Conditions Fewer Conditions

Pressure 29.72 in
Visibility 10.0 miles
Clouds Overcast 4100 ft
Windchill 26 °F
Dew Point 25 °F
Humidity 60%
Rainfall 0.00 in
Snow Depth Not available.
UV 0 out of 12
Pollen 10.00 out of 12
Air Quality Not available.
Flu Activity Local Activity
METAR KAUM 212356Z AUTO 30021G30KT 10SM OVC041 03/M04 A2972 RMK AO2

More Conditions Fewer Conditions

10-Day Weather Forecast

Almanac

Astronomy

Apr. 21, 2015 Rise Set
Actual Time
Civil Twilight
Nautical Twilight
Astronomical Twilight
Moon
Length of Visible Light
Length of Day
Tomorrow will be .
, % of the Moon is Illuminated

Today's Extremes

State Highs State Lows

Community

WunderPhotos

Upload Photos

1,815,586 photos uploaded!

WunderBlogs® & News

Nearby

Air Quality

  Air Quality AQ Index Pollutant
Not available.

Snow Depth

Station Depth Elevation

Earthquake Activity

City Distance Mag. Time & Date
Minimum magnitude displayed is 2.5.

Coastal Water Temperatures

Place Temperature

Stations

Nearby Weather Stations

Station Location Temp. Windchill Dew Point Humidity Wind Precip. Elev Updated Type
                   
Special Statement
Statement as of 6:08 PM CDT on April 21, 2015

... Decreasing winds this evening...

The strong west northwest winds will quickly diminish this
evening. Sustained winds will decrease from 20 to 30 mph to
10 to 20 mph by 9 PM this evening. The wind gusts will diminish
from near 40 mph to 25 mph during the aforementioned time.

These winds may make the travel difficult at times on east west
roads through 8 PM.


Boyne


608 PM CDT Tue Apr 21 2015

... Decreasing winds this evening...

The strong west northwest winds will quickly diminish this
evening. Sustained winds will decrease from 20 to 30 mph to
10 to 20 mph by 9 PM this evening. The wind gusts will diminish
from near 40 mph to 25 mph during the aforementioned time.

These winds may make the travel difficult at times on east west
roads through 8 PM.


Boyne